createdAt,value
2018-03-26T00:02:25.241Z,26.90
2018-03-26T00:04:52.267Z,26.90
2018-03-26T00:07:19.276Z,27.00
2018-03-26T00:09:46.254Z,26.90
2018-03-26T00:12:14.059Z,26.90
2018-03-26T00:14:41.060Z,26.90
2018-03-26T00:17:08.552Z,26.90
2018-03-26T00:19:35.544Z,26.90
2018-03-26T00:22:03.465Z,26.90
2018-03-26T00:24:30.461Z,26.90
2018-03-26T00:26:57.461Z,26.90
2018-03-26T00:29:24.489Z,26.90
2018-03-26T00:31:51.500Z,26.90
2018-03-26T00:34:18.500Z,26.90
2018-03-26T00:36:45.493Z,26.90
2018-03-26T00:39:12.489Z,26.90
2018-03-26T00:41:39.514Z,26.90
2018-03-26T00:44:07.273Z,26.90
2018-03-26T00:46:34.285Z,26.90
2018-03-26T00:49:01.273Z,26.90
2018-03-26T00:51:29.027Z,26.90
2018-03-26T00:53:56.032Z,26.90
2018-03-26T00:56:23.057Z,27.40
2018-03-26T00:58:50.078Z,26.90
2018-03-26T01:01:17.901Z,26.90
2018-03-26T01:03:44.909Z,26.90
2018-03-26T01:06:11.906Z,26.90
2018-03-26T01:08:40.408Z,26.90
2018-03-26T01:11:07.450Z,26.90
2018-03-26T01:13:35.977Z,26.90
2018-03-26T01:16:02.977Z,26.90
2018-03-26T01:18:29.977Z,26.90
2018-03-26T01:20:57.010Z,26.90
2018-03-26T01:23:24.184Z,26.90
2018-03-26T01:25:51.193Z,26.90
2018-03-26T01:28:18.195Z,26.90
2018-03-26T01:30:45.189Z,26.90
2018-03-26T01:33:12.400Z,26.90
2018-03-26T01:35:39.389Z,26.90
2018-03-26T01:38:06.382Z,26.80
2018-03-26T01:40:33.378Z,26.90
2018-03-26T01:43:00.537Z,26.80
2018-03-26T01:45:27.532Z,26.80
2018-03-26T01:47:54.532Z,26.80
2018-03-26T01:50:21.532Z,27.40
2018-03-26T01:52:48.530Z,26.80
2018-03-26T01:55:15.545Z,26.80
2018-03-26T01:57:42.545Z,26.80
2018-03-26T02:00:09.550Z,26.80
2018-03-26T02:02:36.724Z,26.80
2018-03-26T02:05:03.731Z,26.80
2018-03-26T02:07:32.227Z,26.80
2018-03-26T02:09:59.243Z,26.80
2018-03-26T02:12:26.333Z,26.80
2018-03-26T02:14:53.322Z,26.80
2018-03-26T02:17:20.329Z,26.80
2018-03-26T02:19:47.335Z,26.80
2018-03-26T02:22:14.528Z,26.80
2018-03-26T02:24:41.536Z,26.80
2018-03-26T02:27:08.540Z,26.80
2018-03-26T02:29:35.528Z,26.80
2018-03-26T02:32:02.727Z,26.80
2018-03-26T02:34:29.732Z,26.80
2018-03-26T02:36:56.742Z,26.80
2018-03-26T02:39:23.766Z,26.70
2018-03-26T02:41:50.754Z,26.80
2018-03-26T02:44:17.761Z,26.70
2018-03-26T02:46:44.752Z,26.80
2018-03-26T02:49:11.762Z,26.80
2018-03-26T02:51:38.753Z,26.70
2018-03-26T02:54:05.764Z,26.80
2018-03-26T02:56:32.818Z,26.80
2018-03-26T02:58:59.824Z,26.70
2018-03-26T03:01:27.087Z,26.80
2018-03-26T03:03:54.093Z,26.80
2018-03-26T03:06:21.097Z,26.80
2018-03-26T03:08:48.081Z,26.70
2018-03-26T03:11:15.077Z,26.70
2018-03-26T03:13:42.145Z,26.70
2018-03-26T03:16:09.387Z,26.70
2018-03-26T03:18:36.375Z,26.70
2018-03-26T03:21:03.462Z,26.70
2018-03-26T03:23:30.526Z,26.70
2018-03-26T03:25:57.548Z,26.70
2018-03-26T03:28:24.538Z,26.70
2018-03-26T03:30:51.534Z,26.70
2018-03-26T03:33:19.375Z,26.70
2018-03-26T03:35:46.394Z,26.70
2018-03-26T03:38:13.373Z,26.70
2018-03-26T03:40:40.374Z,26.70
2018-03-26T03:43:07.544Z,26.80
2018-03-26T03:45:34.532Z,26.70
2018-03-26T03:48:01.529Z,26.70
2018-03-26T03:50:28.523Z,26.70
2018-03-26T03:52:56.330Z,26.80
2018-03-26T03:55:23.329Z,26.70
2018-03-26T03:57:50.315Z,26.80
2018-03-26T04:00:17.325Z,26.80
2018-03-26T04:02:45.138Z,26.80
2018-03-26T04:05:12.132Z,26.70
2018-03-26T04:07:39.148Z,26.80
2018-03-26T04:10:06.155Z,26.70
2018-03-26T04:12:33.318Z,26.70
2018-03-26T04:15:00.364Z,27.20
2018-03-26T04:17:27.368Z,26.70
2018-03-26T04:19:55.188Z,26.70
2018-03-26T04:22:22.322Z,26.80
2018-03-26T04:24:49.322Z,26.70
2018-03-26T04:27:16.306Z,26.70
2018-03-26T04:29:43.297Z,26.70
2018-03-26T04:32:10.506Z,26.70
2018-03-26T04:34:37.507Z,26.70
2018-03-26T04:37:04.499Z,26.70
2018-03-26T04:39:31.493Z,26.70
2018-03-26T04:41:58.504Z,27.20
2018-03-26T04:44:25.541Z,26.70
2018-03-26T04:46:52.534Z,26.70
2018-03-26T04:49:19.532Z,26.70
2018-03-26T04:51:46.525Z,26.70
2018-03-26T04:54:13.520Z,26.70
2018-03-26T04:56:40.533Z,26.70
2018-03-26T04:59:07.543Z,26.70
2018-03-26T05:01:34.576Z,26.70
2018-03-26T05:04:01.573Z,26.70
2018-03-26T05:06:28.563Z,26.70
2018-03-26T05:08:55.581Z,26.70
2018-03-26T05:11:22.590Z,26.70
2018-03-26T05:13:49.720Z,26.70
2018-03-26T05:16:16.719Z,26.70
2018-03-26T05:18:45.215Z,26.70
2018-03-26T05:21:12.234Z,26.70
2018-03-26T05:23:39.349Z,26.70
2018-03-26T05:26:06.346Z,26.70
2018-03-26T05:28:33.343Z,26.70
2018-03-26T05:31:00.362Z,26.50
2018-03-26T05:33:27.529Z,26.60
2018-03-26T05:35:54.522Z,26.70
2018-03-26T05:38:21.526Z,26.70
2018-03-26T05:40:48.514Z,26.70
2018-03-26T05:43:15.543Z,26.70
2018-03-26T05:45:42.532Z,26.70
2018-03-26T05:48:09.542Z,26.70
2018-03-26T05:50:36.557Z,26.80
2018-03-26T05:53:03.708Z,26.60
2018-03-26T05:55:30.710Z,26.70
2018-03-26T05:57:57.713Z,26.70
2018-03-26T06:00:24.731Z,26.60
2018-03-26T06:02:52.511Z,26.80
2018-03-26T06:05:19.505Z,26.80
2018-03-26T06:07:46.549Z,26.80
2018-03-26T06:10:13.500Z,27.00
2018-03-26T06:12:40.700Z,26.60
2018-03-26T06:15:07.696Z,26.80
2018-03-26T06:17:34.803Z,26.90
2018-03-26T06:20:01.807Z,26.80
2018-03-26T06:22:28.907Z,26.90
2018-03-26T06:24:55.905Z,26.90
2018-03-26T06:27:22.899Z,26.80
2018-03-26T06:29:49.922Z,26.80
2018-03-26T06:32:17.502Z,27.10
2018-03-26T06:34:44.509Z,26.90
2018-03-26T06:37:11.521Z,26.90
2018-03-26T06:39:38.547Z,26.90
2018-03-26T06:42:05.715Z,26.90
2018-03-26T06:44:32.729Z,26.90
2018-03-26T06:46:59.734Z,26.90
2018-03-26T06:49:27.539Z,26.90
2018-03-26T06:51:54.741Z,26.90
2018-03-26T06:54:21.741Z,26.80
2018-03-26T06:56:48.833Z,26.90
2018-03-26T06:59:15.785Z,26.90
2018-03-26T07:01:44.298Z,27.00
2018-03-26T07:04:11.319Z,26.90
2018-03-26T07:06:38.329Z,26.80
2018-03-26T07:09:05.351Z,27.00
2018-03-26T07:11:32.347Z,27.10
2018-03-26T07:13:59.352Z,26.90
2018-03-26T07:16:26.394Z,27.00
2018-03-26T07:18:53.462Z,27.00
2018-03-26T07:21:20.416Z,26.90
2018-03-26T07:23:47.542Z,27.00
2018-03-26T07:26:14.564Z,26.80
2018-03-26T07:28:41.553Z,27.10
2018-03-26T07:31:08.685Z,27.00
2018-03-26T07:33:35.740Z,27.00
2018-03-26T07:36:02.738Z,27.00
2018-03-26T07:38:30.503Z,27.00
2018-03-26T07:40:58.273Z,27.00
2018-03-26T07:43:25.401Z,27.00
2018-03-26T07:45:53.198Z,27.00
2018-03-26T07:48:20.224Z,27.00
2018-03-26T07:50:48.001Z,27.00
2018-03-26T07:53:15.801Z,27.10
2018-03-26T07:55:42.810Z,27.00
2018-03-26T07:58:09.799Z,27.00
2018-03-26T08:00:36.851Z,27.00
2018-03-26T08:03:04.612Z,27.10
2018-03-26T08:05:31.614Z,27.00
2018-03-26T08:07:58.634Z,27.00
2018-03-26T08:10:25.672Z,27.00
2018-03-26T08:12:52.791Z,27.00
2018-03-26T08:15:19.804Z,27.00
2018-03-26T08:17:46.820Z,27.00
2018-03-26T08:20:13.824Z,27.00
2018-03-26T08:22:40.998Z,27.00
2018-03-26T08:25:07.995Z,27.00
2018-03-26T08:27:35.068Z,27.00
2018-03-26T08:30:02.122Z,27.00
2018-03-26T08:32:29.192Z,27.00
2018-03-26T08:34:56.238Z,27.00
2018-03-26T08:37:23.237Z,27.00
2018-03-26T08:39:50.246Z,27.00
2018-03-26T08:42:17.438Z,27.00
2018-03-26T08:44:44.385Z,27.00
2018-03-26T08:47:12.622Z,27.00
2018-03-26T08:49:39.623Z,27.00
2018-03-26T08:52:07.410Z,27.10
2018-03-26T08:54:34.420Z,27.10
2018-03-26T08:57:01.425Z,27.00
2018-03-26T08:59:28.425Z,27.00
2018-03-26T09:01:55.638Z,27.50
2018-03-26T09:04:22.638Z,27.00
2018-03-26T09:06:49.666Z,27.60
2018-03-26T09:09:16.667Z,27.10
2018-03-26T09:11:43.691Z,27.10
2018-03-26T09:14:10.702Z,27.10
2018-03-26T09:16:38.901Z,27.10
2018-03-26T09:19:05.917Z,27.20
2018-03-26T09:21:33.002Z,27.60
2018-03-26T09:23:59.998Z,27.20
2018-03-26T09:26:27.135Z,27.10
2018-03-26T09:28:54.140Z,27.10
2018-03-26T09:31:21.154Z,27.10
2018-03-26T09:33:48.246Z,27.10
2018-03-26T09:36:15.234Z,27.10
2018-03-26T09:38:42.276Z,27.10
2018-03-26T09:41:09.443Z,27.10
2018-03-26T09:43:37.249Z,27.60
2018-03-26T09:46:04.246Z,27.60
2018-03-26T09:48:31.265Z,27.30
2018-03-26T09:50:58.530Z,27.20
2018-03-26T09:53:25.663Z,27.30
2018-03-26T09:55:52.659Z,27.60
2018-03-26T09:58:19.726Z,27.60
2018-03-26T10:00:46.736Z,28.20
2018-03-26T10:03:15.272Z,27.70
2018-03-26T10:05:43.136Z,27.60
2018-03-26T10:08:10.175Z,27.60
2018-03-26T10:10:37.160Z,27.70
2018-03-26T10:13:04.263Z,27.60
2018-03-26T10:15:31.265Z,27.60
2018-03-26T10:17:58.265Z,27.60
2018-03-26T10:20:25.275Z,27.50
2018-03-26T10:22:52.467Z,27.60
2018-03-26T10:25:19.468Z,27.60
2018-03-26T10:27:46.555Z,27.60
2018-03-26T10:30:14.488Z,27.50
2018-03-26T10:32:41.685Z,27.50
2018-03-26T10:35:08.685Z,27.60
2018-03-26T10:37:35.712Z,27.60
2018-03-26T10:40:02.710Z,27.60
2018-03-26T10:42:29.873Z,27.50
2018-03-26T10:44:56.875Z,27.50
2018-03-26T10:47:25.380Z,27.50
2018-03-26T10:49:52.364Z,27.50
2018-03-26T10:52:19.523Z,27.60
2018-03-26T10:54:46.520Z,27.50
2018-03-26T10:57:13.525Z,27.50
2018-03-26T10:59:40.567Z,27.50
2018-03-26T11:02:07.740Z,27.50
2018-03-26T11:04:34.736Z,27.60
2018-03-26T11:07:01.734Z,27.50
2018-03-26T11:09:28.736Z,27.80
2018-03-26T11:11:55.884Z,27.70
2018-03-26T11:14:22.894Z,27.60
2018-03-26T11:16:49.888Z,27.50
2018-03-26T11:19:16.913Z,27.50
2018-03-26T11:21:43.910Z,27.40
2018-03-26T11:24:10.931Z,27.50
2018-03-26T11:26:37.919Z,27.50
2018-03-26T11:29:04.926Z,27.40
2018-03-26T11:31:31.913Z,27.30
2018-03-26T11:33:59.693Z,27.70
2018-03-26T11:36:26.704Z,27.70
2018-03-26T11:38:53.700Z,27.90
2018-03-26T11:41:20.698Z,27.80
2018-03-26T11:43:47.926Z,27.60
2018-03-26T11:46:14.936Z,27.50
2018-03-26T11:48:41.940Z,27.50
2018-03-26T11:51:08.933Z,27.90
2018-03-26T11:53:36.097Z,27.50
2018-03-26T11:56:03.115Z,27.40
2018-03-26T11:58:30.109Z,27.30
2018-03-26T12:00:57.139Z,27.50
2018-03-26T12:03:24.303Z,28.00
2018-03-26T12:05:51.286Z,27.50
2018-03-26T12:08:18.286Z,27.40
2018-03-26T12:10:45.281Z,27.40
2018-03-26T12:13:12.485Z,27.30
2018-03-26T12:15:39.501Z,27.30
2018-03-26T12:18:06.515Z,27.30
2018-03-26T12:20:33.498Z,27.30
2018-03-26T12:23:00.704Z,27.30
2018-03-26T12:25:27.702Z,27.30
2018-03-26T12:27:54.721Z,27.30
2018-03-26T12:30:21.746Z,27.30
2018-03-26T12:32:48.764Z,27.30
2018-03-26T12:35:15.764Z,27.30
2018-03-26T12:37:43.572Z,27.30
2018-03-26T12:40:10.562Z,27.30
2018-03-26T12:42:37.692Z,27.30
2018-03-26T12:45:04.682Z,27.30
2018-03-26T12:47:31.688Z,27.30
2018-03-26T12:49:58.683Z,27.30
2018-03-26T12:52:26.469Z,27.30
2018-03-26T12:54:53.471Z,27.30
2018-03-26T12:57:20.471Z,27.30
2018-03-26T12:59:47.481Z,27.30
2018-03-26T13:02:16.093Z,27.30
2018-03-26T13:04:43.085Z,27.30
2018-03-26T13:07:11.596Z,27.30
2018-03-26T13:09:39.368Z,27.30
2018-03-26T13:12:07.152Z,27.30
2018-03-26T13:14:34.182Z,27.30
2018-03-26T13:17:01.166Z,27.80
2018-03-26T13:19:28.207Z,27.30
2018-03-26T13:21:55.352Z,27.30
2018-03-26T13:24:22.345Z,27.30
2018-03-26T13:26:49.357Z,27.30
2018-03-26T13:29:16.365Z,27.30
2018-03-26T13:31:44.143Z,27.30
2018-03-26T13:34:11.140Z,27.30
2018-03-26T13:36:38.128Z,27.30
2018-03-26T13:39:05.149Z,27.30
2018-03-26T13:41:32.922Z,27.40
2018-03-26T13:43:59.913Z,27.30
2018-03-26T13:46:26.915Z,27.30
2018-03-26T13:48:54.688Z,27.40
2018-03-26T13:51:21.682Z,27.40
2018-03-26T13:53:48.996Z,27.30
2018-03-26T13:56:15.993Z,27.30
2018-03-26T13:58:42.999Z,27.30
2018-03-26T14:01:10.021Z,27.40
2018-03-26T14:03:37.817Z,27.30
2018-03-26T14:06:04.863Z,27.30
2018-03-26T14:08:31.846Z,27.30
2018-03-26T14:10:58.852Z,27.30
2018-03-26T14:13:26.062Z,27.30
2018-03-26T14:15:53.062Z,27.30
2018-03-26T14:18:20.041Z,27.30
2018-03-26T14:20:47.041Z,27.30
2018-03-26T14:23:14.208Z,27.30
2018-03-26T14:25:41.255Z,27.30
2018-03-26T14:28:08.245Z,27.30
2018-03-26T14:30:36.020Z,27.30
2018-03-26T14:33:03.825Z,27.30
2018-03-26T14:35:30.813Z,27.30
2018-03-26T14:37:57.811Z,27.30
2018-03-26T14:40:24.809Z,27.30
2018-03-26T14:42:51.809Z,27.30
2018-03-26T14:45:18.810Z,27.30
2018-03-26T14:47:47.302Z,27.30
2018-03-26T14:50:14.316Z,27.30
2018-03-26T14:52:41.360Z,27.30
2018-03-26T14:55:08.351Z,27.30
2018-03-26T14:57:36.138Z,27.30
2018-03-26T15:00:03.176Z,27.30
2018-03-26T15:02:30.241Z,27.30
2018-03-26T15:04:57.229Z,27.30
2018-03-26T15:07:24.217Z,27.30
2018-03-26T15:09:51.209Z,27.30
2018-03-26T15:12:18.218Z,27.30
2018-03-26T15:14:45.223Z,27.40
2018-03-26T15:17:12.222Z,27.40
2018-03-26T15:19:39.253Z,27.30
2018-03-26T15:22:06.424Z,27.30
2018-03-26T15:24:33.422Z,27.30
2018-03-26T15:27:00.415Z,27.30
2018-03-26T15:29:27.403Z,27.30
2018-03-26T15:31:54.409Z,27.40
2018-03-26T15:34:21.416Z,27.90
2018-03-26T15:36:48.459Z,27.30
2018-03-26T15:39:15.447Z,27.30
2018-03-26T15:41:42.458Z,27.30
2018-03-26T15:44:10.232Z,27.40
2018-03-26T15:46:37.240Z,27.30
2018-03-26T15:49:04.257Z,27.30
2018-03-26T15:51:31.234Z,27.30
2018-03-26T15:53:58.257Z,27.30
2018-03-26T15:56:25.290Z,27.30
2018-03-26T15:58:52.288Z,27.30
2018-03-26T16:01:19.955Z,27.30
2018-03-26T16:03:47.057Z,27.30
2018-03-26T16:06:14.058Z,27.30
2018-03-26T16:08:41.037Z,27.30
2018-03-26T16:11:08.047Z,27.30
2018-03-26T16:13:35.854Z,27.30
2018-03-26T16:16:02.879Z,27.30
2018-03-26T16:18:30.095Z,27.30
2018-03-26T16:20:57.091Z,27.30
2018-03-26T16:23:24.259Z,27.20
2018-03-26T16:25:51.244Z,27.20
2018-03-26T16:28:18.257Z,27.20
2018-03-26T16:30:45.277Z,27.10
2018-03-26T16:33:12.451Z,27.10
2018-03-26T16:35:39.481Z,27.20
2018-03-26T16:38:06.483Z,27.20
2018-03-26T16:40:33.475Z,27.30
2018-03-26T16:43:00.630Z,27.30
2018-03-26T16:45:27.675Z,27.30
2018-03-26T16:47:54.685Z,27.30
2018-03-26T16:50:21.669Z,27.30
2018-03-26T16:52:48.825Z,27.30
2018-03-26T16:55:15.946Z,27.40
2018-03-26T16:57:43.955Z,27.40
2018-03-26T17:00:11.819Z,27.30
2018-03-26T17:02:38.947Z,27.40
2018-03-26T17:05:06.996Z,27.40
2018-03-26T17:07:34.843Z,27.30
2018-03-26T17:10:01.933Z,27.30
2018-03-26T17:12:29.152Z,27.30
2018-03-26T17:14:56.255Z,27.40
2018-03-26T17:17:24.249Z,27.30
2018-03-26T17:19:51.318Z,27.40
2018-03-26T17:22:18.577Z,27.50
2018-03-26T17:24:45.646Z,27.40
2018-03-26T17:27:14.482Z,27.50
2018-03-26T17:29:41.614Z,27.50
2018-03-26T17:32:10.784Z,27.60
2018-03-26T17:34:38.473Z,27.60
2018-03-26T17:37:05.505Z,27.50
2018-03-26T17:39:32.546Z,27.80
2018-03-26T17:41:59.601Z,27.50
2018-03-26T17:44:26.598Z,27.30
2018-03-26T17:46:53.573Z,27.50
2018-03-26T17:49:20.571Z,27.80
2018-03-26T17:51:47.866Z,28.70
2018-03-26T17:54:15.631Z,28.80
2018-03-26T17:56:42.657Z,28.80
2018-03-26T17:59:09.654Z,29.20
2018-03-26T18:01:36.669Z,29.40
2018-03-26T18:04:04.440Z,30.40
2018-03-26T18:06:31.503Z,30.40
2018-03-26T18:08:58.505Z,30.20
2018-03-26T18:11:27.228Z,30.80
2018-03-26T18:13:54.218Z,30.80
2018-03-26T18:16:21.265Z,31.10
2018-03-26T18:18:48.283Z,30.20
2018-03-26T18:21:15.376Z,30.80
2018-03-26T18:23:42.480Z,30.60
2018-03-26T18:26:09.506Z,32.60
2018-03-26T18:28:36.556Z,32.90
2018-03-26T18:31:03.608Z,32.50
2018-03-26T18:33:30.669Z,33.00
2018-03-26T18:35:57.694Z,33.20
2018-03-26T18:38:24.758Z,33.20
2018-03-26T18:40:51.795Z,32.90
2018-03-26T18:43:18.904Z,32.70
2018-03-26T18:45:45.904Z,33.00
2018-03-26T18:48:12.887Z,32.90
2018-03-26T18:50:39.873Z,32.40
2018-03-26T18:53:07.891Z,32.20
2018-03-26T18:55:34.933Z,32.20
2018-03-26T18:58:02.052Z,31.90
2018-03-26T19:00:29.800Z,31.70
2018-03-26T19:02:56.896Z,32.60
2018-03-26T19:05:25.027Z,31.90
2018-03-26T19:07:52.790Z,31.40
2018-03-26T19:10:20.063Z,31.30
2018-03-26T19:12:47.519Z,31.30
2018-03-26T19:15:14.566Z,31.80
2018-03-26T19:17:41.590Z,31.30
2018-03-26T19:20:09.358Z,30.80
2018-03-26T19:22:37.342Z,30.60
2018-03-26T19:25:04.368Z,30.50
2018-03-26T19:27:31.376Z,30.70
2018-03-26T19:29:58.374Z,30.70
2018-03-26T19:32:27.586Z,30.60
2018-03-26T19:34:54.574Z,30.50
2018-03-26T19:37:21.587Z,30.20
2018-03-26T19:39:48.612Z,30.20
2018-03-26T19:42:16.405Z,30.00
2018-03-26T19:44:43.428Z,30.00
2018-03-26T19:47:10.458Z,30.00
2018-03-26T19:49:38.995Z,29.80
2018-03-26T19:52:06.021Z,29.80
2018-03-26T19:54:33.037Z,29.70
2018-03-26T19:57:00.032Z,30.20
2018-03-26T19:59:27.060Z,29.90
2018-03-26T20:01:54.284Z,29.80
2018-03-26T20:04:21.282Z,29.80
2018-03-26T20:06:48.288Z,29.70
2018-03-26T20:09:15.306Z,29.90
2018-03-26T20:11:42.305Z,29.80
2018-03-26T20:14:09.335Z,29.70
2018-03-26T20:16:36.499Z,29.60
2018-03-26T20:19:03.740Z,29.40
2018-03-26T20:21:30.821Z,29.50
2018-03-26T20:23:57.806Z,29.40
2018-03-26T20:26:24.807Z,29.30
2018-03-26T20:28:51.828Z,29.30
2018-03-26T20:31:19.600Z,29.10
2018-03-26T20:33:46.690Z,29.10
2018-03-26T20:36:13.700Z,29.30
2018-03-26T20:38:40.690Z,29.10
2018-03-26T20:41:08.559Z,29.20
2018-03-26T20:43:35.909Z,29.10
2018-03-26T20:46:03.309Z,29.00
2018-03-26T20:48:30.345Z,29.00
2018-03-26T20:50:57.349Z,28.90
2018-03-26T20:53:24.471Z,29.00
2018-03-26T20:55:51.816Z,29.00
2018-03-26T20:58:18.830Z,28.90
2018-03-26T21:00:45.851Z,28.90
2018-03-26T21:03:13.097Z,29.40
2018-03-26T21:05:40.197Z,28.90
2018-03-26T21:08:07.972Z,28.90
2018-03-26T21:10:34.972Z,28.80
2018-03-26T21:13:02.104Z,28.80
2018-03-26T21:15:29.103Z,28.80
2018-03-26T21:17:56.153Z,28.70
2018-03-26T21:20:23.925Z,28.80
2018-03-26T21:22:51.718Z,28.80
2018-03-26T21:25:18.721Z,28.80
2018-03-26T21:27:45.718Z,28.80
2018-03-26T21:30:13.384Z,28.80
2018-03-26T21:32:40.517Z,28.80
2018-03-26T21:35:08.415Z,28.80
2018-03-26T21:37:35.425Z,28.80
2018-03-26T21:40:02.442Z,28.70
2018-03-26T21:42:29.567Z,28.70
2018-03-26T21:44:56.538Z,28.70
2018-03-26T21:47:23.836Z,28.70
2018-03-26T21:49:50.956Z,28.70
2018-03-26T21:52:18.760Z,28.70
2018-03-26T21:54:45.754Z,28.60
2018-03-26T21:57:12.821Z,28.70
2018-03-26T21:59:39.820Z,28.70
2018-03-26T22:02:06.978Z,28.70
2018-03-26T22:04:33.982Z,28.70
2018-03-26T22:07:00.987Z,28.70
2018-03-26T22:09:28.020Z,28.60
2018-03-26T22:11:55.097Z,28.70
2018-03-26T22:14:22.063Z,28.70
2018-03-26T22:16:49.059Z,28.60
2018-03-26T22:19:16.140Z,28.70
2018-03-26T22:21:43.101Z,28.70
2018-03-26T22:24:10.103Z,28.70
2018-03-26T22:26:37.079Z,28.70
2018-03-26T22:29:04.052Z,28.60
2018-03-26T22:31:31.024Z,28.60
2018-03-26T22:33:58.007Z,28.70
2018-03-26T22:36:25.732Z,28.60
2018-03-26T22:38:52.797Z,28.60
2018-03-26T22:41:19.803Z,28.60
2018-03-26T22:43:46.946Z,28.60
2018-03-26T22:46:13.972Z,28.70
2018-03-26T22:48:40.996Z,28.70
2018-03-26T22:51:08.000Z,28.70
2018-03-26T22:53:35.142Z,29.20
2018-03-26T22:56:02.096Z,28.70
2018-03-26T22:58:29.109Z,28.70
2018-03-26T23:00:56.871Z,28.60
2018-03-26T23:03:23.947Z,28.70
2018-03-26T23:05:50.947Z,28.60
2018-03-26T23:08:17.965Z,28.70
2018-03-26T23:10:44.970Z,28.70
2018-03-26T23:13:12.118Z,28.60
2018-03-26T23:15:39.124Z,28.60
2018-03-26T23:18:06.124Z,28.60
2018-03-26T23:20:33.150Z,28.60
2018-03-26T23:23:00.941Z,28.60
2018-03-26T23:25:27.951Z,28.50
2018-03-26T23:27:54.943Z,28.50
2018-03-26T23:30:21.937Z,28.60
2018-03-26T23:32:49.126Z,28.50
2018-03-26T23:35:16.127Z,29.00
2018-03-26T23:37:43.125Z,28.60
2018-03-26T23:40:10.128Z,28.60
2018-03-26T23:42:37.308Z,28.60
2018-03-26T23:45:04.303Z,28.60
2018-03-26T23:47:31.293Z,28.60
2018-03-26T23:49:58.286Z,28.60
2018-03-26T23:52:25.302Z,28.50
2018-03-26T23:54:52.293Z,28.50
2018-03-26T23:57:19.292Z,28.50
2018-03-26T23:59:46.286Z,28.50
